createdAt,value
2019-05-03T00:00:14.334Z,990.43
2019-05-03T00:01:12.873Z,990.32
2019-05-03T00:02:08.331Z,990.36
2019-05-03T00:03:05.303Z,990.27
2019-05-03T00:04:02.685Z,990.33
2019-05-03T00:04:59.294Z,990.27
2019-05-03T00:05:56.295Z,990.31
2019-05-03T00:06:53.279Z,990.34
2019-05-03T00:07:50.266Z,990.36
2019-05-03T00:08:47.259Z,990.33
2019-05-03T00:09:44.553Z,990.29
2019-05-03T00:10:42.490Z,990.36
2019-05-03T00:11:38.243Z,990.40
2019-05-03T00:12:35.240Z,990.30
2019-05-03T00:13:32.581Z,990.41
2019-05-03T00:14:29.217Z,990.30
2019-05-03T00:15:26.209Z,990.35
2019-05-03T00:16:23.214Z,990.33
2019-05-03T00:17:21.885Z,990.38
2019-05-03T00:18:17.200Z,990.36
2019-05-03T00:19:14.201Z,990.38
2019-05-03T00:20:11.638Z,990.39
2019-05-03T00:21:08.189Z,990.40
2019-05-03T00:22:05.167Z,990.33
2019-05-03T00:23:02.980Z,990.38
2019-05-03T00:23:59.169Z,990.31
2019-05-03T00:25:05.302Z,990.33
2019-05-03T00:25:53.150Z,990.36
2019-05-03T00:26:51.618Z,990.28
2019-05-03T00:27:47.129Z,990.34
2019-05-03T00:28:44.118Z,990.35
2019-05-03T00:29:41.777Z,990.39
2019-05-03T00:30:38.127Z,990.27
2019-05-03T00:31:35.111Z,990.28
2019-05-03T00:32:33.099Z,990.33
2019-05-03T00:33:29.102Z,990.35
2019-05-03T00:34:26.088Z,990.39
2019-05-03T00:35:23.068Z,990.33
2019-05-03T00:36:22.169Z,990.34
2019-05-03T00:37:17.057Z,990.33
2019-05-03T00:38:14.059Z,990.31
2019-05-03T00:39:12.213Z,990.27
2019-05-03T00:40:08.040Z,990.35
2019-05-03T00:41:05.053Z,990.34
2019-05-03T00:42:02.714Z,990.32
2019-05-03T00:42:59.026Z,990.35
2019-05-03T00:43:56.011Z,990.44
2019-05-03T00:44:53.000Z,990.39
2019-05-03T00:45:51.687Z,990.45
2019-05-03T00:46:46.997Z,990.34
2019-05-03T00:47:43.990Z,990.44
2019-05-03T00:48:42.878Z,990.32
2019-05-03T00:49:37.977Z,990.40
2019-05-03T00:50:34.956Z,990.36
2019-05-03T00:51:31.971Z,990.40
2019-05-03T00:52:28.960Z,990.32
2019-05-03T00:53:25.952Z,990.32
2019-05-03T00:54:22.945Z,990.40
2019-05-03T00:55:21.891Z,990.37
2019-05-03T00:56:16.931Z,990.36
2019-05-03T00:57:13.948Z,990.37
2019-05-03T00:58:11.750Z,990.30
2019-05-03T00:59:07.916Z,990.26
2019-05-03T01:00:04.895Z,990.26
2019-05-03T01:01:02.710Z,990.30
2019-05-03T01:01:58.891Z,990.34
2019-05-03T01:02:55.884Z,990.33
2019-05-03T01:03:52.888Z,990.36
2019-05-03T01:04:51.462Z,990.25
2019-05-03T01:05:46.876Z,990.27
2019-05-03T01:06:43.870Z,990.28
2019-05-03T01:07:42.236Z,990.33
2019-05-03T01:08:37.832Z,990.29
2019-05-03T01:09:34.840Z,990.35
2019-05-03T01:10:33.082Z,990.25
2019-05-03T01:11:28.812Z,990.28
2019-05-03T01:12:25.828Z,990.38
2019-05-03T01:13:22.798Z,990.29
2019-05-03T01:14:19.808Z,990.33
2019-05-03T01:15:16.786Z,990.34
2019-05-03T01:16:13.795Z,990.41
2019-05-03T01:17:11.788Z,990.38
2019-05-03T01:18:07.767Z,990.39
2019-05-03T01:19:04.753Z,990.41
2019-05-03T01:20:02.834Z,990.46
2019-05-03T01:20:58.755Z,990.44
2019-05-03T01:21:55.739Z,990.38
2019-05-03T01:22:52.745Z,990.33
2019-05-03T01:23:49.734Z,990.44
2019-05-03T01:24:46.729Z,990.41
2019-05-03T01:25:43.706Z,990.47
2019-05-03T01:26:42.040Z,990.40
2019-05-03T01:27:37.729Z,990.34
2019-05-03T01:28:34.693Z,990.41
2019-05-03T01:29:32.282Z,990.41
2019-05-03T01:30:28.683Z,990.36
2019-05-03T01:31:25.680Z,990.37
2019-05-03T01:32:22.693Z,990.44
2019-05-03T01:33:19.664Z,990.44
2019-05-03T01:34:16.668Z,990.47
2019-05-03T01:35:13.640Z,990.41
2019-05-03T01:36:12.022Z,990.41
2019-05-03T01:37:07.627Z,990.42
2019-05-03T01:38:04.640Z,990.40
2019-05-03T01:39:02.126Z,990.36
2019-05-03T01:39:58.608Z,990.48
2019-05-03T01:40:55.623Z,990.38
2019-05-03T01:41:52.602Z,990.48
2019-05-03T01:42:51.677Z,990.50
2019-05-03T01:43:46.593Z,990.50
2019-05-03T01:44:43.593Z,990.52
2019-05-03T01:45:42.363Z,990.52
2019-05-03T01:46:37.557Z,990.53
2019-05-03T01:47:34.570Z,990.56
2019-05-03T01:48:32.182Z,990.58
2019-05-03T01:49:28.550Z,990.58
2019-05-03T01:50:25.551Z,990.64
2019-05-03T01:51:22.539Z,990.65
2019-05-03T01:52:19.527Z,990.66
2019-05-03T01:53:16.516Z,990.60
2019-05-03T01:54:13.531Z,990.62
2019-05-03T01:55:13.921Z,990.65
2019-05-03T01:56:08.506Z,990.60
2019-05-03T01:57:04.490Z,990.60
2019-05-03T01:58:01.901Z,990.61
2019-05-03T01:58:58.484Z,990.63
2019-05-03T01:59:55.463Z,990.59
2019-05-03T02:00:53.455Z,990.49
2019-05-03T02:01:51.329Z,990.53
2019-05-03T02:02:46.464Z,990.49
2019-05-03T02:03:43.458Z,990.51
2019-05-03T02:04:41.750Z,990.65
2019-05-03T02:05:37.438Z,990.55
2019-05-03T02:06:35.429Z,990.46
2019-05-03T02:07:31.681Z,990.47
2019-05-03T02:08:28.409Z,990.40
2019-05-03T02:09:25.406Z,990.45
2019-05-03T02:10:22.705Z,990.48
2019-05-03T02:11:19.393Z,990.45
2019-05-03T02:12:16.392Z,990.43
2019-05-03T02:13:13.382Z,990.43
2019-05-03T02:14:12.219Z,990.53
2019-05-03T02:15:07.353Z,990.44
2019-05-03T02:16:04.375Z,990.44
2019-05-03T02:17:01.837Z,990.42
2019-05-03T02:17:58.371Z,990.47
2019-05-03T02:18:55.346Z,990.38
2019-05-03T02:19:52.731Z,990.39
2019-05-03T02:20:49.325Z,990.33
2019-05-03T02:21:46.307Z,990.41
2019-05-03T02:22:43.330Z,990.41
2019-05-03T02:23:42.465Z,990.39
2019-05-03T02:24:37.301Z,990.38
2019-05-03T02:25:34.298Z,990.41
2019-05-03T02:26:31.799Z,990.41
2019-05-03T02:27:28.277Z,990.45
2019-05-03T02:28:25.266Z,990.52
2019-05-03T02:29:22.288Z,990.47
2019-05-03T02:30:20.262Z,990.42
2019-05-03T02:31:16.257Z,990.42
2019-05-03T02:32:14.241Z,990.49
2019-05-03T02:33:13.090Z,990.47
2019-05-03T02:34:07.242Z,990.50
2019-05-03T02:35:04.226Z,990.48
2019-05-03T02:36:03.705Z,990.52
2019-05-03T02:36:58.199Z,990.42
2019-05-03T02:37:55.208Z,990.45
2019-05-03T02:38:53.499Z,990.46
2019-05-03T02:39:49.194Z,990.52
2019-05-03T02:40:46.195Z,990.47
2019-05-03T02:41:46.024Z,990.48
2019-05-03T02:42:40.186Z,990.50
2019-05-03T02:43:37.167Z,990.43
2019-05-03T02:44:35.584Z,990.41
2019-05-03T02:45:31.164Z,990.42
2019-05-03T02:46:28.154Z,990.48
2019-05-03T02:47:26.489Z,990.58
2019-05-03T02:48:25.577Z,990.49
2019-05-03T02:49:19.117Z,990.40
2019-05-03T02:50:16.827Z,990.46
2019-05-03T02:51:15.525Z,990.50
2019-05-03T02:52:10.095Z,990.54
2019-05-03T02:53:07.103Z,990.58
2019-05-03T02:54:05.573Z,990.60
2019-05-03T02:55:01.083Z,990.60
2019-05-03T02:56:13.802Z,990.55
2019-05-03T02:56:56.003Z,990.73
2019-05-03T02:57:52.068Z,990.71
2019-05-03T02:58:49.065Z,990.73
2019-05-03T02:59:49.736Z,990.65
2019-05-03T03:00:45.446Z,990.75
2019-05-03T03:01:40.036Z,990.73
2019-05-03T03:02:37.021Z,990.65
2019-05-03T03:03:36.320Z,990.61
2019-05-03T03:04:31.014Z,990.83
2019-05-03T03:05:28.001Z,990.81
2019-05-03T03:06:26.722Z,990.85
2019-05-03T03:07:21.986Z,990.84
2019-05-03T03:08:19.006Z,990.77
2019-05-03T03:09:16.515Z,990.77
2019-05-03T03:10:16.019Z,990.74
2019-05-03T03:11:09.980Z,990.71
2019-05-03T03:12:06.975Z,990.83
2019-05-03T03:13:05.932Z,990.77
2019-05-03T03:14:00.941Z,990.83
2019-05-03T03:14:58.955Z,990.67
2019-05-03T03:15:55.445Z,990.66
2019-05-03T03:16:51.943Z,990.67
2019-05-03T03:17:48.931Z,990.67
2019-05-03T03:18:45.906Z,990.68
2019-05-03T03:19:42.916Z,990.65
2019-05-03T03:20:39.899Z,990.76
2019-05-03T03:21:37.905Z,990.80
2019-05-03T03:22:36.304Z,990.82
2019-05-03T03:23:30.890Z,990.85
2019-05-03T03:24:27.880Z,990.81
2019-05-03T03:25:25.788Z,990.83
2019-05-03T03:26:36.444Z,990.85
2019-05-03T03:27:18.866Z,990.87
2019-05-03T03:28:16.032Z,990.84
2019-05-03T03:29:15.713Z,990.91
2019-05-03T03:30:10.849Z,990.93
2019-05-03T03:31:08.261Z,990.94
2019-05-03T03:32:08.517Z,991.09
2019-05-03T03:33:00.891Z,990.98
2019-05-03T03:33:59.338Z,990.98
2019-05-03T03:35:01.508Z,990.96
2019-05-03T03:35:51.793Z,991.03
2019-05-03T03:36:59.423Z,991.00
2019-05-03T03:37:46.335Z,990.99
2019-05-03T03:38:45.768Z,991.00
2019-05-03T03:39:39.767Z,991.06
2019-05-03T03:40:36.758Z,991.08
2019-05-03T03:41:35.341Z,990.98
2019-05-03T03:42:30.741Z,991.06
2019-05-03T03:43:27.742Z,991.02
2019-05-03T03:44:25.718Z,990.81
2019-05-03T03:45:21.722Z,990.86
2019-05-03T03:46:18.726Z,990.86
2019-05-03T03:47:16.612Z,990.94
2019-05-03T03:48:12.710Z,990.95
2019-05-03T03:49:09.690Z,990.99
2019-05-03T03:50:07.720Z,991.00
2019-05-03T03:51:05.140Z,990.97
2019-05-03T03:52:00.668Z,990.98
2019-05-03T03:52:57.665Z,991.03
2019-05-03T03:53:55.729Z,990.97
2019-05-03T03:54:51.664Z,990.69
2019-05-03T03:55:48.663Z,990.61
2019-05-03T03:56:56.015Z,990.88
2019-05-03T03:57:42.645Z,990.97
2019-05-03T03:58:39.635Z,991.12
2019-05-03T03:59:36.761Z,991.18
2019-05-03T04:00:36.086Z,991.23
2019-05-03T04:01:30.623Z,991.20
2019-05-03T04:02:27.603Z,991.31
2019-05-03T04:03:25.935Z,991.36
2019-05-03T04:04:21.588Z,991.38
2019-05-03T04:05:18.593Z,991.39
2019-05-03T04:06:15.613Z,991.29
2019-05-03T04:07:12.586Z,991.30
2019-05-03T04:08:09.567Z,991.31
2019-05-03T04:09:06.551Z,991.15
2019-05-03T04:10:05.717Z,991.13
2019-05-03T04:11:00.543Z,991.27
2019-05-03T04:11:57.841Z,991.19
2019-05-03T04:12:55.863Z,991.02
2019-05-03T04:13:51.526Z,991.18
2019-05-03T04:14:48.523Z,991.26
2019-05-03T04:15:45.557Z,991.37
2019-05-03T04:16:42.509Z,991.41
2019-05-03T04:17:39.507Z,991.49
2019-05-03T04:18:36.488Z,991.48
2019-05-03T04:19:36.179Z,991.51
2019-05-03T04:20:30.482Z,991.46
2019-05-03T04:21:27.485Z,991.43
2019-05-03T04:22:25.374Z,991.43
2019-05-03T04:23:21.463Z,991.38
2019-05-03T04:24:18.453Z,991.39
2019-05-03T04:25:15.722Z,991.44
2019-05-03T04:26:12.444Z,991.43
2019-05-03T04:27:19.753Z,991.44
2019-05-03T04:28:06.436Z,991.33
2019-05-03T04:29:05.384Z,991.35
2019-05-03T04:30:00.421Z,991.34
2019-05-03T04:30:57.417Z,991.40
2019-05-03T04:31:56.609Z,991.48
2019-05-03T04:32:51.411Z,991.58
2019-05-03T04:33:48.416Z,991.59
2019-05-03T04:34:45.676Z,991.63
2019-05-03T04:38:28.321Z,979.51
2019-05-03T04:39:25.676Z,991.62
2019-05-03T04:40:22.599Z,991.63
2019-05-03T04:41:20.300Z,991.69
2019-05-03T04:42:16.801Z,991.74
2019-05-03T04:43:13.292Z,991.75
2019-05-03T04:44:10.354Z,991.71
2019-05-03T04:45:07.262Z,991.75
2019-05-03T04:46:06.517Z,991.67
2019-05-03T04:47:02.266Z,991.63
2019-05-03T04:47:58.242Z,991.62
2019-05-03T04:48:56.216Z,991.61
2019-05-03T04:49:52.248Z,991.56
2019-05-03T04:50:49.219Z,991.62
2019-05-03T04:51:46.650Z,991.58
2019-05-03T04:52:46.039Z,991.66
2019-05-03T04:53:40.212Z,991.71
2019-05-03T04:54:37.221Z,991.63
2019-05-03T04:55:36.388Z,991.77
2019-05-03T04:56:31.206Z,991.70
2019-05-03T04:57:40.115Z,991.67
2019-05-03T04:58:25.798Z,991.59
2019-05-03T04:59:22.166Z,991.57
2019-05-03T05:00:19.169Z,991.70
2019-05-03T05:01:16.154Z,991.78
2019-05-03T05:02:15.697Z,991.71
2019-05-03T05:03:10.140Z,991.85
2019-05-03T05:04:07.138Z,991.87
2019-05-03T05:05:06.042Z,991.86
2019-05-03T05:06:01.110Z,991.88
2019-05-03T05:06:58.121Z,991.88
2019-05-03T05:07:55.783Z,991.87
2019-05-03T05:08:52.123Z,991.85
2019-05-03T05:09:49.083Z,991.73
2019-05-03T05:10:47.078Z,991.78
2019-05-03T05:11:45.563Z,991.84
2019-05-03T05:12:40.091Z,991.86
2019-05-03T05:13:37.071Z,991.97
2019-05-03T05:14:35.236Z,991.93
2019-05-03T05:15:31.063Z,992.00
2019-05-03T05:16:28.044Z,991.98
2019-05-03T05:17:26.355Z,991.97
2019-05-03T05:18:22.046Z,992.05
2019-05-03T05:19:19.025Z,991.95
2019-05-03T05:20:16.021Z,991.97
2019-05-03T05:21:14.857Z,991.97
2019-05-03T05:22:10.024Z,991.99
2019-05-03T05:23:07.000Z,991.99
2019-05-03T05:24:05.538Z,991.97
2019-05-03T05:25:00.993Z,991.94
2019-05-03T05:25:57.995Z,991.94
2019-05-03T05:26:55.112Z,992.03
2019-05-03T05:27:54.878Z,991.98
2019-05-03T05:28:48.975Z,992.07
2019-05-03T05:29:45.946Z,992.06
2019-05-03T05:30:44.405Z,992.20
2019-05-03T05:31:39.950Z,992.17
2019-05-03T05:32:36.939Z,992.07
2019-05-03T05:33:35.350Z,992.15
2019-05-03T05:34:30.911Z,992.26
2019-05-03T05:35:27.911Z,992.17
2019-05-03T05:36:24.902Z,992.12
2019-05-03T05:37:21.903Z,992.32
2019-05-03T05:38:18.904Z,992.31
2019-05-03T05:39:18.727Z,992.34
2019-05-03T05:40:12.890Z,992.31
2019-05-03T05:41:09.863Z,992.35
2019-05-03T05:42:06.900Z,992.35
2019-05-03T05:43:04.917Z,992.30
2019-05-03T05:44:00.854Z,992.29
2019-05-03T05:44:57.842Z,992.29
2019-05-03T05:45:56.282Z,992.34
2019-05-03T05:46:51.839Z,992.40
2019-05-03T05:47:48.837Z,992.37
2019-05-03T05:48:45.820Z,992.30
2019-05-03T05:49:44.356Z,992.36
2019-05-03T05:50:39.796Z,992.41
2019-05-03T05:51:36.800Z,992.40
2019-05-03T05:52:34.656Z,992.35
2019-05-03T05:53:30.788Z,992.37
2019-05-03T05:54:27.768Z,992.42
2019-05-03T05:55:25.310Z,992.44
2019-05-03T05:56:21.769Z,992.35
2019-05-03T05:57:18.782Z,992.46
2019-05-03T05:58:15.789Z,992.39
2019-05-03T05:59:14.711Z,992.46
2019-05-03T06:00:09.752Z,992.40
2019-05-03T06:01:07.024Z,992.47
2019-05-03T06:02:04.843Z,992.39
2019-05-03T06:03:00.718Z,992.50
2019-05-03T06:03:57.731Z,992.40
2019-05-03T06:04:54.694Z,992.45
2019-05-03T06:05:51.690Z,992.40
2019-05-03T06:06:48.700Z,992.41
2019-05-03T06:07:45.844Z,992.47
2019-05-03T06:08:44.559Z,992.61
2019-05-03T06:09:39.659Z,992.51
2019-05-03T06:10:36.671Z,992.55
2019-05-03T06:11:34.733Z,992.64
2019-05-03T06:12:30.657Z,992.46
2019-05-03T06:13:27.659Z,992.51
2019-05-03T06:14:24.642Z,992.38
2019-05-03T06:15:24.479Z,992.41
2019-05-03T06:16:18.632Z,992.36
2019-05-03T06:17:15.616Z,992.50
2019-05-03T06:18:14.610Z,992.35
2019-05-03T06:19:09.607Z,992.44
2019-05-03T06:20:06.608Z,992.41
2019-05-03T06:21:04.610Z,992.31
2019-05-03T06:22:00.590Z,992.23
2019-05-03T06:22:57.574Z,992.29
2019-05-03T06:23:56.276Z,992.27
2019-05-03T06:24:51.551Z,992.35
2019-05-03T06:25:48.558Z,992.34
2019-05-03T06:26:45.547Z,992.42
2019-05-03T06:27:42.542Z,992.54
2019-05-03T06:28:41.659Z,992.54
2019-05-03T06:29:36.526Z,992.42
2019-05-03T06:30:35.107Z,992.44
2019-05-03T06:31:30.520Z,992.58
2019-05-03T06:32:27.526Z,992.58
2019-05-03T06:33:24.605Z,992.68
2019-05-03T06:34:21.496Z,992.54
2019-05-03T06:35:18.496Z,992.64
2019-05-03T06:36:15.476Z,992.72
2019-05-03T06:37:14.818Z,992.70
2019-05-03T06:38:09.470Z,992.60
2019-05-03T06:39:08.322Z,992.92
2019-05-03T06:40:06.060Z,992.72
2019-05-03T06:41:00.447Z,992.58
2019-05-03T06:41:57.460Z,992.55
2019-05-03T06:43:02.338Z,992.62
2019-05-03T06:43:51.533Z,992.57
2019-05-03T06:44:48.706Z,992.63
2019-05-03T06:45:46.701Z,992.63
2019-05-03T06:46:42.403Z,992.72
2019-05-03T06:47:40.253Z,992.72
2019-05-03T06:48:36.384Z,992.71
2019-05-03T06:49:34.583Z,992.76
2019-05-03T06:50:30.384Z,992.82
2019-05-03T06:51:28.374Z,992.81
2019-05-03T06:52:25.561Z,992.80
2019-05-03T06:53:21.342Z,992.73
2019-05-03T06:54:20.757Z,992.69
2019-05-03T06:55:15.356Z,992.72
2019-05-03T06:56:12.378Z,992.65
2019-05-03T06:57:09.696Z,992.67
2019-05-03T06:58:07.336Z,992.67
2019-05-03T06:59:05.231Z,992.73
2019-05-03T07:00:00.306Z,992.73
2019-05-03T07:00:57.327Z,992.65
2019-05-03T07:01:55.243Z,992.66
2019-05-03T07:02:51.276Z,992.66
2019-05-03T07:03:48.288Z,992.79
2019-05-03T07:04:45.281Z,992.76
2019-05-03T07:05:44.422Z,992.76
2019-05-03T07:06:40.681Z,992.71
2019-05-03T07:07:36.251Z,992.73
2019-05-03T07:08:34.437Z,992.80
2019-05-03T07:09:30.239Z,992.76
2019-05-03T07:10:27.243Z,992.85
2019-05-03T07:11:24.715Z,992.85
2019-05-03T07:12:21.222Z,992.97
2019-05-03T07:13:18.208Z,992.90
2019-05-03T07:14:15.615Z,992.89
2019-05-03T07:15:14.404Z,992.91
2019-05-03T07:16:09.210Z,992.90
2019-05-03T07:17:06.187Z,993.05
2019-05-03T07:18:03.175Z,993.06
2019-05-03T07:19:00.168Z,993.21
2019-05-03T07:19:57.178Z,993.24
2019-05-03T07:20:56.502Z,993.25
2019-05-03T07:21:51.152Z,993.22
2019-05-03T07:22:48.140Z,993.27
2019-05-03T07:23:45.222Z,993.24
2019-05-03T07:24:42.120Z,993.08
2019-05-03T07:25:39.133Z,993.12
2019-05-03T07:26:36.114Z,993.07
2019-05-03T07:27:34.966Z,993.11
2019-05-03T07:28:30.112Z,993.14
2019-05-03T07:29:27.116Z,993.14
2019-05-03T07:30:24.791Z,993.19
2019-05-03T07:31:21.077Z,993.16
2019-05-03T07:32:18.077Z,993.14
2019-05-03T07:33:15.167Z,993.21
2019-05-03T07:34:13.055Z,993.14
2019-05-03T07:35:09.055Z,993.24
2019-05-03T07:36:06.041Z,993.24
2019-05-03T07:37:03.339Z,993.32
2019-05-03T07:38:00.019Z,993.32
2019-05-03T07:38:57.009Z,993.34
2019-05-03T07:39:55.593Z,993.37
2019-05-03T07:40:51.016Z,993.38
2019-05-03T07:41:49.005Z,993.38
2019-05-03T07:42:45.076Z,993.40
2019-05-03T07:43:41.984Z,993.32
2019-05-03T07:44:38.974Z,993.37
2019-05-03T07:45:35.970Z,993.38
2019-05-03T07:46:34.739Z,993.31
2019-05-03T07:47:29.957Z,993.17
2019-05-03T07:48:26.955Z,993.20
2019-05-03T07:49:24.957Z,993.29
2019-05-03T07:50:20.946Z,993.25
2019-05-03T07:51:17.931Z,993.19
2019-05-03T07:52:14.958Z,993.11
2019-05-03T07:53:11.907Z,993.13
2019-05-03T07:54:08.918Z,993.09
2019-05-03T07:55:05.905Z,992.99
2019-05-03T07:56:05.061Z,993.05
2019-05-03T07:56:59.894Z,992.93
2019-05-03T07:57:56.881Z,992.42
2019-05-03T07:59:00.559Z,992.92
2019-05-03T07:59:50.878Z,992.59
2019-05-03T08:00:47.879Z,992.42
2019-05-03T08:01:45.545Z,992.57
2019-05-03T08:02:41.851Z,993.22
2019-05-03T08:03:38.841Z,992.54
2019-05-03T08:04:36.035Z,992.38
2019-05-03T08:05:34.868Z,993.15
2019-05-03T08:06:29.830Z,993.31
2019-05-03T08:07:26.816Z,992.96
2019-05-03T08:08:25.044Z,992.80
2019-05-03T08:09:20.807Z,992.78
2019-05-03T08:10:17.793Z,993.03
2019-05-03T08:11:14.790Z,992.79
2019-05-03T08:12:11.764Z,992.84
2019-05-03T08:13:08.774Z,993.06
2019-05-03T08:14:05.751Z,993.05
2019-05-03T08:15:02.754Z,992.69
2019-05-03T08:15:59.746Z,992.91
2019-05-03T08:16:56.757Z,992.66
2019-05-03T08:17:55.397Z,993.54
2019-05-03T08:18:51.733Z,993.26
2019-05-03T08:19:48.740Z,993.15
2019-05-03T08:20:45.146Z,993.62
2019-05-03T08:21:41.713Z,993.78
2019-05-03T08:22:38.711Z,993.74
2019-05-03T08:23:35.730Z,993.76
2019-05-03T08:24:34.567Z,993.36
2019-05-03T08:25:29.666Z,992.41
2019-05-03T08:26:26.682Z,992.23
2019-05-03T08:27:25.144Z,993.20
2019-05-03T08:28:20.655Z,993.29
2019-05-03T08:29:19.573Z,993.23
2019-05-03T08:30:14.767Z,994.02
2019-05-03T08:31:11.644Z,994.13
2019-05-03T08:32:08.633Z,993.82
2019-05-03T08:33:05.640Z,993.38
2019-05-03T08:34:04.688Z,993.43
2019-05-03T08:34:59.612Z,993.38
2019-05-03T08:35:56.596Z,993.25
2019-05-03T08:36:54.849Z,993.27
2019-05-03T08:37:50.609Z,993.18
2019-05-03T08:38:47.587Z,993.04
2019-05-03T08:39:44.868Z,993.16
2019-05-03T08:40:41.574Z,993.13
2019-05-03T08:41:38.567Z,993.14
2019-05-03T08:42:35.554Z,993.06
2019-05-03T08:43:32.545Z,993.11
2019-05-03T08:44:30.552Z,993.26
2019-05-03T08:45:26.540Z,993.16
2019-05-03T08:46:25.390Z,993.07
2019-05-03T08:47:20.528Z,993.09
2019-05-03T08:48:17.511Z,993.15
2019-05-03T08:49:15.512Z,993.08
2019-05-03T08:50:14.682Z,993.00
2019-05-03T08:51:08.478Z,993.07
2019-05-03T08:52:06.501Z,992.93
2019-05-03T08:53:04.793Z,992.93
2019-05-03T08:53:59.478Z,992.95
2019-05-03T08:54:56.462Z,993.12
2019-05-03T08:55:55.297Z,993.00
2019-05-03T08:56:50.450Z,993.09
2019-05-03T08:57:47.448Z,992.65
2019-05-03T08:58:45.093Z,991.05
2019-05-03T08:59:41.439Z,989.64
2019-05-03T09:00:38.417Z,990.18
2019-05-03T09:01:37.830Z,991.12
2019-05-03T09:02:34.610Z,991.32
2019-05-03T09:03:29.432Z,991.02
2019-05-03T09:04:36.162Z,991.22
2019-05-03T09:05:25.030Z,991.50
2019-05-03T09:06:20.399Z,991.89
2019-05-03T09:07:17.370Z,992.84
2019-05-03T09:08:15.728Z,992.74
2019-05-03T09:09:11.377Z,992.99
2019-05-03T09:10:12.219Z,992.57
2019-05-03T09:11:05.658Z,993.13
2019-05-03T09:12:02.374Z,995.99
2019-05-03T09:12:59.352Z,995.03
2019-05-03T09:13:56.385Z,992.00
2019-05-03T09:14:54.786Z,991.27
2019-05-03T09:15:50.319Z,994.02
2019-05-03T09:16:47.323Z,994.13
2019-05-03T09:17:44.693Z,994.39
2019-05-03T09:18:41.287Z,993.96
2019-05-03T09:19:38.386Z,993.95
2019-05-03T09:20:35.701Z,992.63
2019-05-03T09:21:32.282Z,993.24
2019-05-03T09:22:29.274Z,993.58
2019-05-03T09:23:26.262Z,993.37
2019-05-03T09:24:24.592Z,993.30
2019-05-03T09:25:20.247Z,992.96
2019-05-03T09:26:17.284Z,992.90
2019-05-03T09:27:15.442Z,990.93
2019-05-03T09:28:11.235Z,990.91
2019-05-03T09:29:08.224Z,990.92
2019-05-03T09:30:05.224Z,993.68
2019-05-03T09:31:04.517Z,993.95
2019-05-03T09:31:59.205Z,992.75
2019-05-03T09:32:57.199Z,994.03
2019-05-03T09:33:54.781Z,993.53
2019-05-03T09:34:50.182Z,993.44
2019-05-03T09:35:47.171Z,993.26
2019-05-03T09:36:44.881Z,993.19
2019-05-03T09:37:41.177Z,992.96
2019-05-03T09:38:40.421Z,992.92
2019-05-03T09:39:35.616Z,992.83
2019-05-03T09:40:32.135Z,992.78
2019-05-03T09:41:29.152Z,992.91
2019-05-03T09:42:26.128Z,992.88
2019-05-03T09:43:24.929Z,992.85
2019-05-03T09:44:20.115Z,992.92
2019-05-03T09:45:17.098Z,992.94
2019-05-03T09:46:14.698Z,992.21
2019-05-03T09:47:11.090Z,993.01
2019-05-03T09:48:08.100Z,992.83
2019-05-03T09:49:12.785Z,992.83
2019-05-03T09:50:04.806Z,992.75
2019-05-03T09:50:59.074Z,992.67
2019-05-03T09:51:56.069Z,992.75
2019-05-03T09:52:55.466Z,992.69
2019-05-03T09:53:50.044Z,992.76
2019-05-03T09:54:47.049Z,992.53
2019-05-03T09:55:44.805Z,992.43
2019-05-03T09:56:52.864Z,992.72
2019-05-03T09:57:38.011Z,992.86
2019-05-03T09:58:38.050Z,992.70
2019-05-03T09:59:32.002Z,991.10
2019-05-03T10:00:28.993Z,991.17
2019-05-03T10:01:25.996Z,991.25
2019-05-03T10:02:24.639Z,992.51
2019-05-03T10:03:19.984Z,992.23
2019-05-03T10:04:18.110Z,992.69
2019-05-03T10:05:15.580Z,993.02
2019-05-03T10:06:10.955Z,992.31
2019-05-03T10:07:07.940Z,992.13
2019-05-03T10:08:05.342Z,991.99
2019-05-03T10:09:01.973Z,992.33
2019-05-03T10:09:58.923Z,992.85
2019-05-03T10:10:55.941Z,993.00
2019-05-03T10:11:55.154Z,992.32
2019-05-03T10:12:49.905Z,992.06
2019-05-03T10:13:48.649Z,992.42
2019-05-03T10:14:45.179Z,992.12
2019-05-03T10:15:40.885Z,992.28
2019-05-03T10:16:37.889Z,993.01
2019-05-03T10:17:35.312Z,994.03
2019-05-03T10:18:31.877Z,993.48
2019-05-03T10:19:37.650Z,993.34
2019-05-03T10:20:25.853Z,992.85
2019-05-03T10:21:22.861Z,992.72
2019-05-03T10:22:19.846Z,992.62
2019-05-03T10:23:17.831Z,993.53
2019-05-03T10:24:15.235Z,993.76
2019-05-03T10:25:10.830Z,993.54
2019-05-03T10:26:08.618Z,993.43
2019-05-03T10:27:05.616Z,993.26
2019-05-03T10:28:01.841Z,993.64
2019-05-03T10:28:58.821Z,993.29
2019-05-03T10:30:09.670Z,993.25
2019-05-03T10:30:54.749Z,993.23
2019-05-03T10:31:49.792Z,992.90
2019-05-03T10:32:46.769Z,992.89
2019-05-03T10:33:45.005Z,993.00
2019-05-03T10:34:42.780Z,992.92
2019-05-03T10:35:37.759Z,993.05
2019-05-03T10:36:35.762Z,993.08
2019-05-03T10:37:31.753Z,993.22
2019-05-03T10:38:28.740Z,993.19
2019-05-03T10:39:26.332Z,992.96
2019-05-03T10:40:24.353Z,993.05
2019-05-03T10:41:19.706Z,992.72
2019-05-03T10:42:16.709Z,991.69
2019-05-03T10:43:14.705Z,991.67
2019-05-03T10:44:10.691Z,991.70
2019-05-03T10:45:07.698Z,992.03
2019-05-03T10:46:05.223Z,992.16
2019-05-03T10:47:01.671Z,992.02
2019-05-03T10:47:58.665Z,992.40
2019-05-03T10:48:56.848Z,992.37
2019-05-03T10:49:52.658Z,992.87
2019-05-03T10:50:51.052Z,993.45
2019-05-03T10:51:46.654Z,993.76
2019-05-03T10:52:44.675Z,993.17
2019-05-03T10:53:40.638Z,992.84
2019-05-03T10:54:39.761Z,992.87
2019-05-03T10:55:35.801Z,993.23
2019-05-03T10:56:31.912Z,992.79
2019-05-03T10:57:28.604Z,993.03
2019-05-03T10:58:25.630Z,993.18
2019-05-03T10:59:24.659Z,993.14
2019-05-03T11:00:42.498Z,993.41
2019-05-03T11:01:16.598Z,993.50
2019-05-03T11:02:13.579Z,993.38
2019-05-03T11:03:10.574Z,993.04
2019-05-03T11:04:07.555Z,993.12
2019-05-03T11:05:05.217Z,993.04
2019-05-03T11:06:01.562Z,992.85
2019-05-03T11:06:59.549Z,993.06
2019-05-03T11:07:55.708Z,992.85
2019-05-03T11:08:54.530Z,993.13
2019-05-03T11:09:52.522Z,993.07
2019-05-03T11:10:46.526Z,992.70
2019-05-03T11:11:45.213Z,992.05
2019-05-03T11:12:40.518Z,991.94
2019-05-03T11:13:37.495Z,991.85
2019-05-03T11:14:35.029Z,992.02
2019-05-03T11:15:31.474Z,991.99
2019-05-03T11:16:28.483Z,992.35
2019-05-03T11:17:25.723Z,992.62
2019-05-03T11:18:22.467Z,992.60
2019-05-03T11:19:19.492Z,992.70
2019-05-03T11:20:28.268Z,992.98
2019-05-03T11:21:15.529Z,992.77
2019-05-03T11:22:10.435Z,993.03
2019-05-03T11:23:07.447Z,993.27
2019-05-03T11:24:04.423Z,992.89
2019-05-03T11:25:01.436Z,992.72
2019-05-03T11:25:58.421Z,992.92
2019-05-03T11:26:55.888Z,992.68
2019-05-03T11:27:52.427Z,992.52
2019-05-03T11:28:49.424Z,992.47
2019-05-03T11:29:46.408Z,992.65
2019-05-03T11:30:53.169Z,992.43
2019-05-03T11:31:40.380Z,992.61
2019-05-03T11:32:37.408Z,992.77
2019-05-03T11:33:35.354Z,992.60
2019-05-03T11:34:31.411Z,992.67
2019-05-03T11:35:28.383Z,992.44
2019-05-03T11:36:25.390Z,992.87
2019-05-03T11:37:22.384Z,992.90
2019-05-03T11:38:21.370Z,992.74
2019-05-03T11:39:16.383Z,992.67
2019-05-03T11:40:15.550Z,992.62
2019-05-03T11:41:10.375Z,992.42
2019-05-03T11:42:07.346Z,992.50
2019-05-03T11:43:04.697Z,992.74
2019-05-03T11:44:01.344Z,992.83
2019-05-03T11:44:58.320Z,992.91
2019-05-03T11:45:55.672Z,993.26
2019-05-03T11:46:52.303Z,993.12
2019-05-03T11:47:49.311Z,992.53
2019-05-03T11:48:46.306Z,992.43
2019-05-03T11:49:45.194Z,992.21
2019-05-03T11:50:40.297Z,992.98
2019-05-03T11:51:37.284Z,992.55
2019-05-03T11:52:35.553Z,992.80
2019-05-03T11:53:31.298Z,993.34